Terminal Aerodrome Forecast
Issued by NWS

Home | Current Version | Previous Version | Text Only | Print | Product List | Glossary Off
Versions: 1 2 3 4 5 6 7 8 9 10 11 12 13 14 15 16 17 18 19 20 21 22

000
FTUS43 KGRB 190500
TAFAUW
TAF
KAUW 190520Z 1906/2006 10010G18KT P6SM BKN150
     FM190700 11008KT P6SM BKN060 BKN150 WS015/12040KT
     FM191300 12012G17KT P6SM BKN060 OVC100
      TEMPO 1913/1917 -SHRA OVC060
     FM191700 13011G16KT 6SM -SHRA OVC035
     FM200000 10006KT 6SM -SHRA OVC030=

USA.gov is the U.S. government's official web portal to all federal, state and local government web resources and services.